Date,TemperatureHighF,TemperatureAvgF,TemperatureLowF,DewpointHighF,DewpointAvgF,DewpointLowF,HumidityHigh,HumidityAvg,HumidityLow,PressureMaxIn,PressureMinIn,WindSpeedMaxMPH,WindSpeedAvgMPH,GustSpeedMaxMPH,PrecipitationSumIn
2013-9-1,81.9,72.0,66.4,72.3,68.9,66.1,99,91,67,29.69,29.59,7,3,0,0.12
2013-9-2,82.8,70.7,60.6,74.0,67.3,58.3,99,90,62,29.62,29.50,10,3,0,0.07
2013-9-3,69.3,63.1,59.2,58.9,57.6,56.3,93,83,68,29.77,29.61,10,4,0,0.00
2013-9-4,78.8,66.7,54.1,64.0,56.6,51.9,99,74,41,29.82,29.77,16,4,0,0.06
2013-9-5,67.8,58.7,45.9,63.3,49.6,40.2,99,74,43,30.07,29.80,9,3,0,0.00
2013-9-6,72.0,56.4,43.3,51.9,46.0,41.1,95,71,38,30.12,29.93,6,2,0,0.00
2013-9-7,66.2,60.0,54.5,60.1,53.7,46.9,96,80,67,29.93,29.71,8,3,0,0.08
2013-9-8,68.0,59.0,45.7,63.0,52.7,42.9,99,82,42,29.96,29.68,9,3,0,0.22
2013-9-9,79.0,61.5,44.1,63.3,51.7,42.3,94,72,48,29.99,29.80,7,2,0,0.00
2013-9-10,92.7,78.5,65.7,77.8,70.8,61.2,95,78,61,29.85,29.75,10,4,0,0.18
2013-9-11,93.0,81.7,72.7,75.7,72.3,66.2,92,74,51,29.89,29.73,9,4,0,0.00
2013-9-12,73.8,68.3,59.4,69.1,65.9,59.1,99,92,80,29.78,29.55,9,3,0,0.22
2013-9-13,59.2,53.4,48.6,58.9,52.9,48.3,99,98,90,29.83,29.57,6,3,0,0.69
2013-9-14,66.0,51.2,43.2,48.3,45.2,40.1,99,82,47,29.96,29.82,6,3,0,0.00
2013-9-15,67.8,57.6,47.8,54.1,48.6,42.5,95,73,60,30.00,29.88,11,3,0,0.01
2013-9-16,54.1,48.6,38.1,50.8,47.1,37.8,99,95,78,30.21,29.89,7,2,0,0.18
2013-9-17,65.5,55.0,36.0,44.5,42.1,35.7,99,64,43,30.31,30.14,6,3,0,0.00
2013-9-18,83.1,59.3,45.9,54.7,45.7,40.1,87,64,26,30.14,29.94,7,2,0,0.00
2013-9-19,84.6,65.0,53.6,59.2,52.4,46.0,88,65,38,29.97,29.85,6,2,0,0.00
2013-9-20,83.5,70.4,58.3,66.3,60.3,55.2,92,72,51,29.86,29.62,9,3,0,0.00
2013-9-21,70.7,63.1,52.5,63.2,59.4,52.0,98,89,68,29.62,29.46,7,4,0,1.24
2013-9-22,55.8,51.0,48.2,51.7,46.0,41.6,98,84,62,29.84,29.55,10,4,0,0.00
2013-9-23,61.5,49.5,39.4,45.4,42.8,38.6,97,79,55,29.97,29.84,5,2,0,0.00
2013-9-24,68.2,50.6,39.6,49.8,43.2,39.1,99,79,41,29.97,29.83,7,2,0,0.00
2013-9-25,68.2,53.3,42.6,53.5,45.9,41.1,96,78,50,29.85,29.78,8,2,0,0.00
2013-9-26,69.3,54.7,41.4,56.5,49.1,40.9,98,83,60,30.00,29.83,7,2,0,0.00
2013-9-27,69.3,55.3,44.1,58.7,51.5,43.8,99,88,66,30.11,29.98,6,1,0,0.00
2013-9-28,73.0,59.4,46.9,58.9,52.8,46.4,99,81,54,30.14,30.02,7,2,0,0.00
2013-9-29,75.7,61.9,50.7,55.7,51.3,47.6,92,70,44,30.03,29.84,7,2,0,0.00
2013-9-30,72.9,64.3,57.4,62.5,56.4,50.0,91,76,65,29.86,29.78,5,2,0,0.00